Time;durP1;ratioP1;P1;durP2;ratioP2;P2;SDS_P1;SDS_P2;PMS_P1;PMS_P2;Temp;Humidity;BMP_temperature;BMP_pressure;BME280_temperature;BME280_humidity;BME280_pressure;Samples;Min_cycle;Max_cycle;Signal;HPM_P1;HPM_P2
2023/09/04 00:01:00;;;;;;;;;23.33;19.33;;;;;;;;5075765;28;45412;-83
2023/09/04 00:03:26;;;;;;;;;25.67;19.33;;;;;;;;5073198;28;45725;-85
2023/09/04 00:05:51;;;;;;;;;23.33;21.67;;;;;;;;5063288;28;46977;-83
2023/09/04 00:08:17;;;;;;;;;21.67;19.00;;;;;;;;5073056;28;45409;-84
2023/09/04 00:10:42;;;;;;;;;17.00;15.67;;;;;;;;5073711;27;45782;-83
2023/09/04 00:13:15;;;;;;;;;15.33;15.33;;;;;;;;5075130;28;46015;-84
2023/09/04 00:15:40;;;;;;;;;19.67;16.00;;;;;;;;5076166;28;45312;-83
2023/09/04 00:18:07;;;;;;;;;16.67;16.67;;;;;;;;5075339;27;45615;-84
2023/09/04 00:20:32;;;;;;;;;19.33;16.67;;;;;;;;5076827;28;45777;-86
2023/09/04 00:22:57;;;;;;;;;20.33;19.33;;;;;;;;5075335;28;45633;-85
2023/09/04 00:25:23;;;;;;;;;20.33;18.67;;;;;;;;5076305;28;46164;-83
2023/09/04 00:27:48;;;;;;;;;15.33;12.67;;;;;;;;5081074;27;45437;-81
2023/09/04 00:30:13;;;;;;;;;16.67;16.67;;;;;;;;5076632;28;45733;-83
2023/09/04 00:32:39;;;;;;;;;26.00;20.50;;;;;;;;5078614;27;45861;-83
2023/09/04 00:35:05;;;;;;;;;14.33;12.67;;;;;;;;5080395;27;46072;-84
2023/09/04 00:37:30;;;;;;;;;18.00;16.67;;;;;;;;5081510;27;45253;-84
2023/09/04 00:39:55;;;;;;;;;25.33;20.00;;;;;;;;5078165;28;45246;-83
2023/09/04 00:42:21;;;;;;;;;15.33;14.33;;;;;;;;5082598;28;45452;-83
2023/09/04 00:44:52;;;;;;;;;20.00;16.00;;;;;;;;5079395;28;47106;-84
2023/09/04 00:47:18;;;;;;;;;18.67;17.33;;;;;;;;5079576;28;45375;-83
2023/09/04 00:49:44;;;;;;;;;20.67;16.67;;;;;;;;5084961;27;45417;-82
2023/09/04 00:52:10;;;;;;;;;19.00;19.00;;;;;;;;5086099;28;45936;-82
2023/09/04 00:54:35;;;;;;;;;19.00;15.33;;;;;;;;5081783;28;45456;-83
2023/09/04 00:57:03;;;;;;;;;22.00;16.67;;;;;;;;5079176;27;44783;-85
2023/09/04 00:59:32;;;;;;;;;18.00;17.67;;;;;;;;5097809;28;45288;-84
2023/09/04 01:02:02;;;;;;;;;21.67;20.00;;;;;;;;5095194;28;45479;-84
2023/09/04 01:04:27;;;;;;;;;46.33;38.00;;;;;;;;5095531;28;47257;-86
2023/09/04 01:06:55;;;;;;;;;35.67;29.00;;;;;;;;5095628;27;44850;-84
2023/09/04 01:09:22;;;;;;;;;32.67;28.33;;;;;;;;5094129;28;45258;-83
2023/09/04 01:11:59;;;;;;;;;23.00;22.67;;;;;;;;5089633;28;45406;-84
2023/09/04 01:14:24;;;;;;;;;49.67;40.33;;;;;;;;5089168;28;47102;-82
2023/09/04 01:16:51;;;;;;;;;31.00;25.33;;;;;;;;5086718;28;44829;-82
2023/09/04 01:19:18;;;;;;;;;34.33;28.67;;;;;;;;5088695;27;45823;-82
2023/09/04 01:21:43;;;;;;;;;29.00;25.67;;;;;;;;5095557;28;45239;-83
2023/09/04 01:24:09;;;;;;;;;23.33;20.33;;;;;;;;5084239;27;45420;-81
2023/09/04 01:26:40;;;;;;;;;22.67;19.33;;;;;;;;5093920;28;45525;-83
2023/09/04 01:29:24;;;;;;;;;13.33;12.33;;;;;;;;5093894;28;45710;-84
2023/09/04 01:32:10;;;;;;;;;12.67;12.67;;;;;;;;5093701;28;45532;-84
2023/09/04 01:34:41;;;;;;;;;11.25;11.25;;;;;;;;5094465;28;46932;-86
2023/09/04 01:37:07;;;;;;;;;12.25;12.25;;;;;;;;5095257;27;45936;-83
2023/09/04 01:39:33;;;;;;;;;12.33;9.67;;;;;;;;5094975;27;44779;-83
2023/09/04 01:41:58;;;;;;;;;11.00;6.00;;;;;;;;5094839;27;46449;-83
2023/09/04 01:44:25;;;;;;;;;10.00;10.00;;;;;;;;5097529;28;45030;-84
2023/09/04 01:46:50;;;;;;;;;13.25;10.50;;;;;;;;5100011;27;44985;-83
2023/09/04 01:49:15;;;;;;;;;12.25;12.25;;;;;;;;5099016;28;44919;-83
2023/09/04 01:51:41;;;;;;;;;10.25;9.50;;;;;;;;5094578;27;45432;-85
2023/09/04 01:54:07;;;;;;;;;11.50;11.50;;;;;;;;5092487;28;47954;-85
2023/09/04 01:56:33;;;;;;;;;13.75;12.75;;;;;;;;5098808;27;46353;-83
2023/09/04 01:58:59;;;;;;;;;12.25;12.25;;;;;;;;5096395;28;45310;-83
2023/09/04 02:01:24;;;;;;;;;14.00;13.33;;;;;;;;5095853;28;45250;-84
2023/09/04 02:03:57;;;;;;;;;14.33;14.00;;;;;;;;5089732;27;45938;-85
2023/09/04 02:06:26;;;;;;;;;6.50;5.75;;;;;;;;5074885;28;45288;-83
2023/09/04 02:08:51;;;;;;;;;11.00;10.00;;;;;;;;5087280;28;44874;-84
2023/09/04 02:11:17;;;;;;;;;9.33;9.33;;;;;;;;5092296;28;45476;-85
2023/09/04 02:13:45;;;;;;;;;11.75;11.25;;;;;;;;5095420;27;47295;-84
2023/09/04 02:16:11;;;;;;;;;11.00;11.00;;;;;;;;5088929;28;45523;-82
2023/09/04 02:18:38;;;;;;;;;16.00;9.00;;;;;;;;5095833;28;44799;-84
2023/09/04 02:21:03;;;;;;;;;15.67;12.67;;;;;;;;5093826;27;44759;-84
2023/09/04 02:23:28;;;;;;;;;17.33;13.00;;;;;;;;5082542;28;46845;-83
2023/09/04 02:25:54;;;;;;;;;12.25;12.25;;;;;;;;5093693;28;44838;-83
2023/09/04 02:28:19;;;;;;;;;8.25;8.25;;;;;;;;5089393;28;44787;-89
2023/09/04 02:30:45;;;;;;;;;14.00;11.67;;;;;;;;5094467;27;45873;-88
2023/09/04 02:33:10;;;;;;;;;9.50;7.00;;;;;;;;5099734;28;45454;-83
2023/09/04 02:35:35;;;;;;;;;13.00;11.67;;;;;;;;5101599;27;45262;-84
2023/09/04 02:38:01;;;;;;;;;10.25;9.25;;;;;;;;5091346;28;44811;-84
2023/09/04 02:40:26;;;;;;;;;10.00;9.00;;;;;;;;5097567;27;45491;-83
2023/09/04 02:42:51;;;;;;;;;8.00;7.00;;;;;;;;5087228;28;45441;-84
2023/09/04 02:45:17;;;;;;;;;12.33;11.00;;;;;;;;5079166;28;45200;-84
2023/09/04 02:47:42;;;;;;;;;11.33;10.00;;;;;;;;5087668;28;45350;-84
2023/09/04 02:50:08;;;;;;;;;16.00;12.67;;;;;;;;5098392;27;45311;-82
2023/09/04 02:52:34;;;;;;;;;16.33;13.00;;;;;;;;5096264;28;45728;-82
2023/09/04 02:55:00;;;;;;;;;14.33;14.33;;;;;;;;5097818;28;44895;-83
2023/09/04 02:57:26;;;;;;;;;16.00;13.00;;;;;;;;5098956;27;46107;-83
2023/09/04 02:59:51;;;;;;;;;14.00;10.33;;;;;;;;5091327;28;44809;-82
2023/09/04 03:02:19;;;;;;;;;11.33;11.33;;;;;;;;5094989;28;47066;-83
2023/09/04 03:04:45;;;;;;;;;14.00;14.00;;;;;;;;5101544;28;45052;-84
2023/09/04 03:07:10;;;;;;;;;17.33;15.67;;;;;;;;5098458;28;44816;-82
2023/09/04 03:09:35;;;;;;;;;19.67;15.33;;;;;;;;5081628;28;44835;-83
2023/09/04 03:12:01;;;;;;;;;17.67;17.67;;;;;;;;5097339;28;45169;-84
2023/09/04 03:14:26;;;;;;;;;18.33;18.33;;;;;;;;5100482;28;45266;-83
2023/09/04 03:16:52;;;;;;;;;26.00;18.67;;;;;;;;5099155;28;45405;-85
2023/09/04 03:19:17;;;;;;;;;21.00;16.67;;;;;;;;5098513;28;45807;-84
2023/09/04 03:21:43;;;;;;;;;26.33;18.33;;;;;;;;5097078;28;46208;-84
2023/09/04 03:24:08;;;;;;;;;20.33;18.00;;;;;;;;5090486;27;45384;-82
2023/09/04 03:26:33;;;;;;;;;21.67;18.67;;;;;;;;5086981;28;45285;-83
2023/09/04 03:28:59;;;;;;;;;20.67;16.67;;;;;;;;5096501;28;46055;-83
2023/09/04 03:31:25;;;;;;;;;17.67;15.00;;;;;;;;5096945;28;46315;-83
2023/09/04 03:33:50;;;;;;;;;9.00;7.00;;;;;;;;5098047;27;44687;-82
2023/09/04 03:36:15;;;;;;;;;18.67;13.67;;;;;;;;5099571;28;45405;-84
2023/09/04 03:38:41;;;;;;;;;18.67;14.33;;;;;;;;5101007;28;44834;-83
2023/09/04 03:41:06;;;;;;;;;13.33;10.33;;;;;;;;5104735;27;45140;-83
2023/09/04 03:43:33;;;;;;;;;17.33;14.67;;;;;;;;5102451;27;44747;-82
2023/09/04 03:45:58;;;;;;;;;15.33;15.33;;;;;;;;5099537;28;44941;-83
2023/09/04 03:48:24;;;;;;;;;15.33;14.33;;;;;;;;5095444;28;46663;-82
2023/09/04 03:50:49;;;;;;;;;13.50;13.50;;;;;;;;5079896;28;47180;-84
2023/09/04 03:53:15;;;;;;;;;11.67;11.67;;;;;;;;5091138;28;45221;-84
2023/09/04 03:55:40;;;;;;;;;10.33;10.33;;;;;;;;5097889;28;45028;-83
2023/09/04 03:58:05;;;;;;;;;15.33;12.67;;;;;;;;5098657;28;46037;-84
2023/09/04 04:00:31;;;;;;;;;17.00;13.33;;;;;;;;5099027;28;45312;-85
2023/09/04 04:02:56;;;;;;;;;8.00;6.67;;;;;;;;5098787;28;44739;-85
2023/09/04 04:05:24;;;;;;;;;11.67;10.67;;;;;;;;5097887;28;45497;-84
2023/09/04 04:07:49;;;;;;;;;10.75;10.50;;;;;;;;5096163;28;45326;-86
2023/09/04 04:10:15;;;;;;;;;12.67;12.67;;;;;;;;5083724;28;47134;-87
2023/09/04 04:12:41;;;;;;;;;10.25;10.25;;;;;;;;5100113;27;45335;-85
2023/09/04 04:15:07;;;;;;;;;12.00;10.00;;;;;;;;5099297;27;44837;-85
2023/09/04 04:17:35;;;;;;;;;13.33;10.33;;;;;;;;5082959;27;45839;-83
2023/09/04 04:20:09;;;;;;;;;14.00;11.67;;;;;;;;5097513;28;47165;-83
2023/09/04 04:22:37;;;;;;;;;14.00;12.00;;;;;;;;5098249;28;44765;-85
2023/09/04 04:25:02;;;;;;;;;12.67;11.00;;;;;;;;5097064;28;44716;-85
2023/09/04 04:27:28;;;;;;;;;9.33;9.33;;;;;;;;5097448;28;45711;-83
2023/09/04 04:29:55;;;;;;;;;4.67;0.00;;;;;;;;5099125;28;45232;-83
2023/09/04 04:32:20;;;;;;;;;10.33;10.33;;;;;;;;5094081;27;45468;-83
2023/09/04 04:34:46;;;;;;;;;9.33;9.33;;;;;;;;5095005;28;45690;-82
2023/09/04 04:37:11;;;;;;;;;15.00;11.67;;;;;;;;5101316;28;44937;-85
2023/09/04 04:39:37;;;;;;;;;11.67;11.67;;;;;;;;5099036;28;46940;-83
2023/09/04 04:42:02;;;;;;;;;14.33;12.00;;;;;;;;5094223;28;44754;-84
2023/09/04 04:44:28;;;;;;;;;15.33;12.00;;;;;;;;5089874;28;44778;-85
2023/09/04 04:46:53;;;;;;;;;12.00;10.33;;;;;;;;5090382;28;45896;-86
2023/09/04 04:49:22;;;;;;;;;10.67;10.67;;;;;;;;5097408;28;46924;-86
2023/09/04 04:51:49;;;;;;;;;10.33;10.33;;;;;;;;5089148;28;45392;-84
2023/09/04 04:54:14;;;;;;;;;12.00;10.33;;;;;;;;5087090;27;45415;-84
2023/09/04 04:56:40;;;;;;;;;14.00;12.00;;;;;;;;5096564;27;44989;-86
2023/09/04 04:59:07;;;;;;;;;11.00;10.00;;;;;;;;5105447;27;46661;-85
2023/09/04 05:01:33;;;;;;;;;16.00;12.67;;;;;;;;5093305;27;44834;-84
2023/09/04 05:03:58;;;;;;;;;15.00;13.00;;;;;;;;5090843;27;44723;-85
2023/09/04 05:06:23;;;;;;;;;10.33;10.33;;;;;;;;5089872;28;44862;-82
2023/09/04 05:08:48;;;;;;;;;10.33;10.33;;;;;;;;5090579;27;45864;-83
2023/09/04 05:11:14;;;;;;;;;8.67;5.33;;;;;;;;5080701;27;44990;-84
2023/09/04 05:13:39;;;;;;;;;13.00;11.00;;;;;;;;5095545;28;45548;-84
2023/09/04 05:16:05;;;;;;;;;13.00;10.67;;;;;;;;5096385;27;45300;-84
2023/09/04 05:18:31;;;;;;;;;9.67;9.33;;;;;;;;5087004;28;47049;-83
2023/09/04 05:20:57;;;;;;;;;17.00;9.67;;;;;;;;5097045;28;44704;-86
2023/09/04 05:23:22;;;;;;;;;11.33;10.00;;;;;;;;5095311;28;44787;-83
2023/09/04 05:25:48;;;;;;;;;9.33;9.33;;;;;;;;5093400;27;45514;-83
2023/09/04 05:28:14;;;;;;;;;10.67;10.67;;;;;;;;5094583;28;47204;-83
2023/09/04 05:30:39;;;;;;;;;11.00;10.67;;;;;;;;5095900;28;45342;-84
2023/09/04 05:33:04;;;;;;;;;14.00;11.00;;;;;;;;5093777;28;44752;-86
2023/09/04 05:35:30;;;;;;;;;17.00;13.33;;;;;;;;5095237;28;44744;-84
2023/09/04 05:37:56;;;;;;;;;9.33;8.33;;;;;;;;5095261;28;46699;-85
2023/09/04 05:40:21;;;;;;;;;12.33;12.00;;;;;;;;5101065;27;44692;-87
2023/09/04 05:42:59;;;;;;;;;16.67;13.00;;;;;;;;5105163;27;44774;-85
2023/09/04 05:45:51;;;;;;;;;17.00;16.00;;;;;;;;5104047;27;45693;-85
2023/09/04 05:48:31;;;;;;;;;15.33;12.33;;;;;;;;5099264;27;45279;-86
2023/09/04 05:50:58;;;;;;;;;17.67;14.67;;;;;;;;5102150;27;44807;-87
2023/09/04 05:53:24;;;;;;;;;15.00;13.33;;;;;;;;5100798;27;44814;-89
2023/09/04 05:56:06;;;;;;;;;14.00;13.00;;;;;;;;5094754;28;45543;-87
2023/09/04 05:58:34;;;;;;;;;15.33;14.67;;;;;;;;5085171;28;46858;-87
2023/09/04 06:01:16;;;;;;;;;17.33;15.67;;;;;;;;5108977;27;44830;-86
2023/09/04 06:06:34;;;;;;;;;22.67;17.00;;;;;;;;5081448;27;45013;-83
2023/09/04 06:09:02;;;;;;;;;18.00;14.00;;;;;;;;5101234;27;46719;-85
2023/09/04 06:11:28;;;;;;;;;14.67;14.67;;;;;;;;5103760;28;45319;-87
2023/09/04 06:14:28;;;;;;;;;29.00;26.00;;;;;;;;5096320;28;44822;-86
2023/09/04 06:16:58;;;;;;;;;16.67;16.67;;;;;;;;5102254;28;44746;-82
2023/09/04 06:22:52;;;;;;;;;13.67;12.67;;;;;;;;5042556;28;44769;-86
2023/09/04 06:25:42;;;;;;;;;19.00;15.67;;;;;;;;5030164;28;45705;-88
2023/09/04 06:28:23;;;;;;;;;18.75;15.00;;;;;;;;5033400;28;44999;-84
2023/09/04 06:30:54;;;;;;;;;16.33;15.33;;;;;;;;5034020;28;46335;-83
2023/09/04 06:33:37;;;;;;;;;16.75;16.25;;;;;;;;5078380;27;45853;-85
2023/09/04 06:36:22;;;;;;;;;15.75;15.75;;;;;;;;5082715;27;45848;-88
2023/09/04 06:39:16;;;;;;;;;18.75;16.50;;;;;;;;5083640;27;47116;-89
2023/09/04 06:41:51;;;;;;;;;18.75;16.75;;;;;;;;5057573;27;47293;-90
2023/09/04 06:44:38;;;;;;;;;9.75;9.75;;;;;;;;5071998;27;45334;-89
2023/09/04 06:47:28;;;;;;;;;11.25;11.25;;;;;;;;5073253;28;45977;-88
2023/09/04 06:50:00;;;;;;;;;11.75;11.25;;;;;;;;5077705;27;45823;-87
2023/09/04 06:52:33;;;;;;;;;13.75;13.00;;;;;;;;5084758;28;46182;-89
2023/09/04 06:55:15;;;;;;;;;;;;;;;;;;;;;
2023/09/04 06:57:50;;;;;;;;;11.00;11.00;;;;;;;;5078372;28;67614;-89
2023/09/04 07:00:45;;;;;;;;;6.25;5.25;;;;;;;;5083309;27;46020;-88
2023/09/04 07:03:47;;;;;;;;;18.50;12.25;;;;;;;;5057496;28;45538;-88
2023/09/04 07:06:17;;;;;;;;;6.75;6.00;;;;;;;;5068248;28;45405;-88
2023/09/04 07:09:07;;;;;;;;;9.75;9.00;;;;;;;;5084700;28;45597;-90
2023/09/04 07:12:11;;;;;;;;;;;;;;;;;;;;;
2023/09/04 07:18:38;;;;;;;;;12.50;11.75;;;;;;;;5017984;28;44895;-89
2023/09/04 07:21:05;;;;;;;;;11.50;10.75;;;;;;;;4956668;28;45776;-87
2023/09/04 07:23:46;;;;;;;;;13.25;11.00;;;;;;;;4986601;28;45018;-85
2023/09/04 07:26:35;;;;;;;;;12.00;10.00;;;;;;;;4974083;28;46782;-87
2023/09/04 07:29:01;;;;;;;;;14.25;10.25;;;;;;;;4967528;28;44976;-86
2023/09/04 07:31:31;;;;;;;;;12.50;11.00;;;;;;;;4990782;28;45308;-84
2023/09/04 07:33:57;;;;;;;;;10.50;10.50;;;;;;;;5075469;22;45574;-70
2023/09/04 07:36:23;;;;;;;;;10.50;10.00;;;;;;;;5088003;27;45800;-69
2023/09/04 07:38:48;;;;;;;;;9.25;9.25;;;;;;;;5095590;27;45471;-71
2023/09/04 07:41:13;;;;;;;;;8.75;7.75;;;;;;;;5087095;27;45898;-70
2023/09/04 07:43:39;;;;;;;;;10.25;8.00;;;;;;;;5087796;27;45419;-72
2023/09/04 07:46:04;;;;;;;;;9.50;7.75;;;;;;;;5093421;27;47129;-73
2023/09/04 07:48:29;;;;;;;;;9.25;9.25;;;;;;;;5094243;27;45593;-72
2023/09/04 07:50:56;;;;;;;;;13.50;8.25;;;;;;;;5085388;27;45830;-71
2023/09/04 07:53:22;;;;;;;;;11.75;9.75;;;;;;;;5092875;27;45690;-73
2023/09/04 07:55:47;;;;;;;;;13.75;9.25;;;;;;;;5092134;27;45947;-72
2023/09/04 07:58:15;;;;;;;;;11.75;11.75;;;;;;;;5094882;27;45481;-71
2023/09/04 08:00:47;;;;;;;;;13.00;11.25;;;;;;;;5094266;27;45283;-71
2023/09/04 08:03:16;;;;;;;;;11.00;10.00;;;;;;;;5095297;27;46037;-71
2023/09/04 08:05:41;;;;;;;;;10.25;9.00;;;;;;;;5085898;27;45352;-71
2023/09/04 08:08:10;;;;;;;;;8.00;8.00;;;;;;;;5091355;27;46145;-73
2023/09/04 08:10:39;;;;;;;;;9.25;6.25;;;;;;;;5093749;27;45457;-72
2023/09/04 08:13:14;;;;;;;;;9.00;8.00;;;;;;;;5094661;27;45699;-70
2023/09/04 08:15:40;;;;;;;;;10.50;9.75;;;;;;;;5093606;27;46814;-73
2023/09/04 08:18:06;;;;;;;;;12.00;11.50;;;;;;;;5095298;27;45635;-72
2023/09/04 08:20:31;;;;;;;;;11.00;9.00;;;;;;;;5089294;27;45448;-71
2023/09/04 08:22:56;;;;;;;;;7.00;7.00;;;;;;;;5091986;27;45234;-71
2023/09/04 08:25:22;;;;;;;;;10.00;10.00;;;;;;;;5091550;27;46289;-71
2023/09/04 08:27:47;;;;;;;;;9.75;9.75;;;;;;;;5083386;27;46698;-69
2023/09/04 08:30:12;;;;;;;;;8.50;8.50;;;;;;;;5079239;27;45978;-72
2023/09/04 08:32:37;;;;;;;;;11.50;10.00;;;;;;;;5081022;27;46009;-71
2023/09/04 08:35:03;;;;;;;;;9.00;9.00;;;;;;;;5088187;27;45765;-72
2023/09/04 08:37:29;;;;;;;;;8.25;8.25;;;;;;;;5094216;27;45800;-70
2023/09/04 08:39:54;;;;;;;;;8.50;7.25;;;;;;;;5091950;27;45778;-70
2023/09/04 08:42:20;;;;;;;;;7.50;7.50;;;;;;;;5088030;27;45495;-71
2023/09/04 08:44:46;;;;;;;;;10.00;9.00;;;;;;;;5090938;27;45827;-71
2023/09/04 08:47:35;;;;;;;;;9.00;7.75;;;;;;;;5091850;27;45792;-72
2023/09/04 08:50:01;;;;;;;;;15.25;10.50;;;;;;;;5091850;27;45393;-72
2023/09/04 08:52:27;;;;;;;;;8.25;7.50;;;;;;;;5083972;27;46946;-71
2023/09/04 08:54:52;;;;;;;;;10.75;8.50;;;;;;;;5081981;27;45518;-70
2023/09/04 08:57:18;;;;;;;;;6.75;6.75;;;;;;;;5082025;27;45786;-72
2023/09/04 08:59:43;;;;;;;;;8.25;8.25;;;;;;;;5080295;27;45804;-71
2023/09/04 09:02:12;;;;;;;;;9.00;9.00;;;;;;;;5079179;27;45505;-72
2023/09/04 09:04:37;;;;;;;;;6.00;6.00;;;;;;;;5074683;27;45861;-72
2023/09/04 09:07:03;;;;;;;;;6.50;5.00;;;;;;;;5091030;27;45770;-71
2023/09/04 09:09:29;;;;;;;;;8.00;6.25;;;;;;;;5093332;27;45760;-71
2023/09/04 09:11:55;;;;;;;;;9.00;8.00;;;;;;;;5199338;22;45415;-71
2023/09/04 09:14:26;;;;;;;;;8.00;8.00;;;;;;;;5068733;27;46934;-74
2023/09/04 09:17:05;;;;;;;;;9.00;7.00;;;;;;;;5079333;27;45513;-73
2023/09/04 09:19:33;;;;;;;;;5.25;5.25;;;;;;;;5066223;27;45691;-72
2023/09/04 09:22:12;;;;;;;;;7.75;7.50;;;;;;;;5069799;28;45950;-71
2023/09/04 09:24:59;;;;;;;;;8.00;8.00;;;;;;;;5066328;28;47379;-70
2023/09/04 09:27:25;;;;;;;;;12.75;10.25;;;;;;;;5069042;28;45392;-71
2023/09/04 09:29:51;;;;;;;;;8.50;7.25;;;;;;;;5065705;27;45777;-73
2023/09/04 09:32:18;;;;;;;;;7.25;7.25;;;;;;;;5063061;28;45800;-73
2023/09/04 09:34:50;;;;;;;;;7.25;7.00;;;;;;;;5071845;28;45400;-71
2023/09/04 09:37:16;;;;;;;;;7.00;7.00;;;;;;;;5070759;27;45641;-72
2023/09/04 09:39:41;;;;;;;;;10.75;9.00;;;;;;;;5066412;28;45709;-71
2023/09/04 09:42:07;;;;;;;;;7.25;7.25;;;;;;;;5062955;28;45799;-71
2023/09/04 09:44:32;;;;;;;;;7.50;6.75;;;;;;;;5063402;28;48238;-71
2023/09/04 09:46:58;;;;;;;;;5.50;4.75;;;;;;;;5065398;28;45439;-72
2023/09/04 09:49:23;;;;;;;;;7.00;7.00;;;;;;;;5066619;27;45466;-71
2023/09/04 09:51:53;;;;;;;;;5.25;5.25;;;;;;;;5067047;27;45910;-73
2023/09/04 09:54:37;;;;;;;;;9.00;8.00;;;;;;;;5063429;28;48104;-72
2023/09/04 09:57:03;;;;;;;;;6.75;6.75;;;;;;;;5062131;28;45779;-72
2023/09/04 09:59:30;;;;;;;;;7.75;7.75;;;;;;;;5061878;27;45358;-71
2023/09/04 10:01:56;;;;;;;;;6.75;6.75;;;;;;;;5064058;28;46382;-72
2023/09/04 10:04:22;;;;;;;;;7.00;7.00;;;;;;;;5068359;28;45651;-72
2023/09/04 10:06:49;;;;;;;;;8.75;7.00;;;;;;;;5063089;28;46673;-73
2023/09/04 10:09:16;;;;;;;;;8.75;7.00;;;;;;;;5064783;28;45414;-71
2023/09/04 10:11:43;;;;;;;;;8.50;7.00;;;;;;;;5062902;28;45641;-70
2023/09/04 10:14:14;;;;;;;;;5.00;4.75;;;;;;;;5065130;28;46537;-71
2023/09/04 10:16:42;;;;;;;;;6.25;6.25;;;;;;;;5068560;28;45753;-70
2023/09/04 10:19:09;;;;;;;;;5.25;5.25;;;;;;;;5061153;28;45841;-72
2023/09/04 10:21:44;;;;;;;;;6.75;6.75;;;;;;;;5066074;28;45333;-72
2023/09/04 10:24:13;;;;;;;;;7.75;6.25;;;;;;;;5063934;27;46018;-70
2023/09/04 10:26:41;;;;;;;;;6.40;5.60;;;;;;;;5061158;28;45832;-71
2023/09/04 10:29:17;;;;;;;;;6.50;6.00;;;;;;;;5059731;27;45827;-71
2023/09/04 10:31:43;;;;;;;;;8.50;6.25;;;;;;;;5060058;28;45372;-70
2023/09/04 10:34:08;;;;;;;;;6.25;6.25;;;;;;;;5063246;28;45396;-71
2023/09/04 10:36:34;;;;;;;;;4.25;4.25;;;;;;;;5063241;27;45435;-69
2023/09/04 10:39:00;;;;;;;;;5.25;5.25;;;;;;;;5066599;28;45812;-71
2023/09/04 10:41:30;;;;;;;;;7.25;6.25;;;;;;;;5067727;27;45810;-71
2023/09/04 10:43:55;;;;;;;;;7.00;7.00;;;;;;;;5062986;27;45529;-70
2023/09/04 10:46:22;;;;;;;;;7.00;7.00;;;;;;;;5059118;28;45895;-71
2023/09/04 10:48:49;;;;;;;;;6.00;6.00;;;;;;;;5066295;28;45851;-73
2023/09/04 10:51:36;;;;;;;;;7.25;7.00;;;;;;;;5061936;28;46246;-70
2023/09/04 10:54:14;;;;;;;;;6.75;6.75;;;;;;;;5064027;28;46488;-71
2023/09/04 10:56:53;;;;;;;;;7.00;6.00;;;;;;;;5070583;28;45433;-71
2023/09/04 10:59:18;;;;;;;;;3.75;2.25;;;;;;;;5061230;28;46574;-71
2023/09/04 11:01:43;;;;;;;;;5.75;5.00;;;;;;;;5062644;27;46125;-70
2023/09/04 11:04:46;;;;;;;;;6.75;6.00;;;;;;;;5072935;28;46820;-71
2023/09/04 11:07:25;;;;;;;;;5.25;5.25;;;;;;;;5068382;28;45957;-72
2023/09/04 11:10:06;;;;;;;;;5.25;5.25;;;;;;;;5064270;28;45379;-71
2023/09/04 11:12:34;;;;;;;;;6.50;6.50;;;;;;;;5065169;27;45507;-71
2023/09/04 11:15:03;;;;;;;;;5.50;4.75;;;;;;;;5061475;27;46217;-76
2023/09/04 11:17:32;;;;;;;;;7.25;7.25;;;;;;;;5067787;28;45949;-70
2023/09/04 11:20:00;;;;;;;;;7.75;7.00;;;;;;;;5069685;28;45501;-72
2023/09/04 11:22:26;;;;;;;;;4.00;4.00;;;;;;;;5058009;28;45502;-70
2023/09/04 11:24:54;;;;;;;;;5.00;5.00;;;;;;;;5069688;28;46290;-71
2023/09/04 11:27:31;;;;;;;;;5.00;5.00;;;;;;;;5071614;27;45733;-71
2023/09/04 11:30:00;;;;;;;;;5.50;5.50;;;;;;;;5072261;27;45579;-70
2023/09/04 11:32:25;;;;;;;;;8.75;7.00;;;;;;;;5068984;28;45624;-69
2023/09/04 11:34:51;;;;;;;;;5.75;5.00;;;;;;;;5064199;27;45235;-69
2023/09/04 11:37:16;;;;;;;;;9.00;7.50;;;;;;;;5073302;28;45822;-70
2023/09/04 11:40:06;;;;;;;;;7.00;6.50;;;;;;;;5071503;28;45573;-71
2023/09/04 11:42:32;;;;;;;;;9.25;9.25;;;;;;;;5079832;27;46575;-70
2023/09/04 11:44:58;;;;;;;;;7.00;4.75;;;;;;;;5074887;27;45704;-69
2023/09/04 11:47:37;;;;;;;;;5.00;5.00;;;;;;;;5065838;28;45422;-71
2023/09/04 11:50:12;;;;;;;;;8.75;6.25;;;;;;;;5074049;28;45474;-71
2023/09/04 11:52:39;;;;;;;;;5.00;5.00;;;;;;;;5073497;27;45705;-69
2023/09/04 11:55:06;;;;;;;;;8.00;8.00;;;;;;;;5074639;27;47631;-70
2023/09/04 11:57:31;;;;;;;;;6.00;6.00;;;;;;;;5074814;28;45491;-70
2023/09/04 11:59:57;;;;;;;;;5.50;5.50;;;;;;;;5073719;28;45767;-74
2023/09/04 12:02:26;;;;;;;;;4.25;4.25;;;;;;;;5067156;28;45782;-72
2023/09/04 12:04:56;;;;;;;;;6.50;5.75;;;;;;;;5070263;28;48323;-72
2023/09/04 12:07:21;;;;;;;;;4.00;4.00;;;;;;;;5074094;28;45724;-73
2023/09/04 12:09:46;;;;;;;;;6.00;6.00;;;;;;;;5074219;27;45724;-72
2023/09/04 12:12:13;;;;;;;;;5.50;5.50;;;;;;;;5067739;27;45577;-72
2023/09/04 12:14:44;;;;;;;;;3.50;3.50;;;;;;;;5072541;28;46920;-72
2023/09/04 12:17:17;;;;;;;;;5.75;5.00;;;;;;;;5064048;28;45740;-73
2023/09/04 12:19:42;;;;;;;;;5.00;5.00;;;;;;;;5072594;27;45725;-72
2023/09/04 12:22:17;;;;;;;;;7.00;4.50;;;;;;;;5073914;27;45945;-73
2023/09/04 12:25:36;;;;;;;;;5.25;5.25;;;;;;;;5072211;28;45383;-74
2023/09/04 12:28:03;;;;;;;;;5.50;4.25;;;;;;;;5031764;28;45466;-73
2023/09/04 12:30:29;;;;;;;;;4.00;4.00;;;;;;;;5008641;28;45570;-72
2023/09/04 12:32:56;;;;;;;;;5.50;5.50;;;;;;;;5043042;28;47107;-73
2023/09/04 12:35:22;;;;;;;;;5.00;4.00;;;;;;;;5072486;28;45409;-73
2023/09/04 12:37:47;;;;;;;;;4.25;4.25;;;;;;;;5073265;28;45500;-72
2023/09/04 12:40:15;;;;;;;;;5.00;5.00;;;;;;;;5071210;27;45244;-73
2023/09/04 12:42:41;;;;;;;;;7.75;5.75;;;;;;;;5071328;28;47121;-72
2023/09/04 12:45:07;;;;;;;;;5.75;4.75;;;;;;;;5069632;28;45424;-73
2023/09/04 12:47:32;;;;;;;;;3.00;3.00;;;;;;;;5064460;28;45408;-72
2023/09/04 12:50:00;;;;;;;;;4.25;4.25;;;;;;;;5072955;28;45635;-72
2023/09/04 12:52:25;;;;;;;;;4.00;4.00;;;;;;;;5070654;27;45491;-74
2023/09/04 12:54:53;;;;;;;;;8.75;5.00;;;;;;;;5070792;28;45915;-75
2023/09/04 12:57:19;;;;;;;;;7.00;5.00;;;;;;;;5062027;28;45858;-73
2023/09/04 12:59:44;;;;;;;;;5.00;4.00;;;;;;;;5069322;28;45814;-74
2023/09/04 13:02:09;;;;;;;;;7.25;5.75;;;;;;;;5070255;28;45697;-75
2023/09/04 13:04:35;;;;;;;;;3.50;3.50;;;;;;;;5062577;28;47001;-73
2023/09/04 13:07:00;;;;;;;;;5.25;5.25;;;;;;;;5065993;28;45454;-74
2023/09/04 13:09:26;;;;;;;;;5.50;4.50;;;;;;;;5070793;27;46040;-73
2023/09/04 13:11:52;;;;;;;;;4.00;4.00;;;;;;;;5063668;28;45565;-74
2023/09/04 13:14:17;;;;;;;;;2.75;2.75;;;;;;;;5071680;28;45433;-73
2023/09/04 13:16:42;;;;;;;;;3.50;3.50;;;;;;;;5068937;28;45453;-75
2023/09/04 13:19:10;;;;;;;;;5.50;4.75;;;;;;;;5067921;28;47296;-73
2023/09/04 13:21:36;;;;;;;;;4.75;4.75;;;;;;;;5067598;28;45401;-70
2023/09/04 13:24:01;;;;;;;;;4.25;4.25;;;;;;;;5064701;28;45590;-68
2023/09/04 13:26:26;;;;;;;;;5.25;5.25;;;;;;;;5063294;27;45540;-72
2023/09/04 13:28:52;;;;;;;;;4.50;4.50;;;;;;;;5065684;28;45480;-72
2023/09/04 13:31:20;;;;;;;;;9.25;7.00;;;;;;;;5067426;28;46399;-77
2023/09/04 13:33:46;;;;;;;;;7.00;5.50;;;;;;;;5067512;28;47680;-76
2023/09/04 13:36:11;;;;;;;;;4.00;2.00;;;;;;;;5063691;28;45416;-78
2023/09/04 13:38:36;;;;;;;;;4.75;4.50;;;;;;;;5062118;28;46811;-78
2023/09/04 13:41:02;;;;;;;;;3.00;3.00;;;;;;;;5063177;28;45909;-77
2023/09/04 13:43:27;;;;;;;;;3.00;3.00;;;;;;;;5064730;28;46685;-79
2023/09/04 13:45:52;;;;;;;;;5.25;3.75;;;;;;;;5065343;28;45440;-76
2023/09/04 13:48:17;;;;;;;;;4.75;4.25;;;;;;;;5058937;28;45957;-73
2023/09/04 13:50:43;;;;;;;;;5.50;3.25;;;;;;;;5068841;28;45535;-75
2023/09/04 13:53:08;;;;;;;;;8.25;5.50;;;;;;;;5066241;28;46715;-76
2023/09/04 13:55:34;;;;;;;;;3.25;3.25;;;;;;;;5062399;28;45964;-75
2023/09/04 13:58:05;;;;;;;;;4.75;3.50;;;;;;;;5068696;28;45471;-77
2023/09/04 14:00:30;;;;;;;;;2.25;2.00;;;;;;;;5066589;28;45689;-76
2023/09/04 14:05:30;;;;;;;;;5.00;3.40;;;;;;;;5082013;27;45719;-70
2023/09/04 14:07:55;;;;;;;;;4.25;2.75;;;;;;;;5076804;27;45981;-69
2023/09/04 14:10:20;;;;;;;;;3.50;3.50;;;;;;;;5077857;27;46745;-69
2023/09/04 14:12:45;;;;;;;;;3.00;3.00;;;;;;;;5078334;27;46680;-69
2023/09/04 14:15:11;;;;;;;;;4.25;4.25;;;;;;;;5080633;27;45970;-70
2023/09/04 14:17:36;;;;;;;;;3.75;3.75;;;;;;;;5077798;27;45716;-69
2023/09/04 14:20:05;;;;;;;;;4.00;3.00;;;;;;;;5083576;27;46424;-75
2023/09/04 14:22:30;;;;;;;;;2.75;2.75;;;;;;;;5087119;27;46378;-70
2023/09/04 14:24:55;;;;;;;;;4.25;4.25;;;;;;;;5082070;27;45596;-70
2023/09/04 14:27:20;;;;;;;;;4.00;4.00;;;;;;;;5091087;27;45561;-71
2023/09/04 14:29:48;;;;;;;;;3.50;3.50;;;;;;;;5088582;27;45978;-70
2023/09/04 14:32:14;;;;;;;;;3.50;3.50;;;;;;;;5083729;27;46279;-70
2023/09/04 14:34:39;;;;;;;;;6.00;3.00;;;;;;;;5089760;27;45836;-70
2023/09/04 14:37:04;;;;;;;;;4.00;4.00;;;;;;;;5088650;27;45708;-70
2023/09/04 14:39:29;;;;;;;;;2.75;2.75;;;;;;;;5092635;27;45873;-70
2023/09/04 14:41:55;;;;;;;;;5.00;3.00;;;;;;;;5083620;27;46479;-72
2023/09/04 14:44:20;;;;;;;;;3.00;3.00;;;;;;;;5087371;27;45842;-73
2023/09/04 14:46:45;;;;;;;;;4.25;3.25;;;;;;;;5083468;27;45976;-70
2023/09/04 14:49:11;;;;;;;;;3.25;2.50;;;;;;;;5083960;27;45578;-70
2023/09/04 14:51:39;;;;;;;;;4.00;4.00;;;;;;;;5080219;27;46953;-71
2023/09/04 14:54:04;;;;;;;;;3.00;3.00;;;;;;;;5085860;27;45850;-69